KPNE/PNE METAR and TAF weather

Enter ICAO airport designator
Station Type Date Time Source
KPNE METAR 2019/06/16 11:54 UTC NOAA

KPNE 161154Z 20010G16KT 10SM CLR 23/16 A2992 RMK AO2 SLP130 T02280156 10233 20217 56007 $


Station Type Date Time Source
KPNE Decoded METAR 2019/06/16 11:54 UTC NOAA

N.E. PHILADELPHIA AIRPORT, PA, United States (KPNE) 40-05N 075-01W 28M
Jun 16, 2019 - 07:54 AM EDT / 2019.06.16 1154 UTC
Wind: from the SSW (200 degrees) at 12 MPH (10 KT) gusting to 18 MPH (16 KT):0
Visibility: 10 mile(s):0
Sky conditions: clear
Temperature: 73.0 F (22.8 C)
Dew Point: 60.1 F (15.6 C)
Relative Humidity: 63%
Pressure (altimeter): 29.92 in. Hg (1013 hPa)
Pressure tendency: 0.02 inches (0.7 hPa) lower than three hours ago
ob: KPNE 161154Z 20010G16KT 10SM CLR 23/16 A2992 RMK AO2 SLP130 T02280156 10233 20217 56007
cycle: 12

Station Type Date Time Source
KPNE TAF 2019/06/16 12:22 UTC NOAA

TAF KPNE 161120Z 1612/1712 21008KT P6SM BKN120
FM161600 23010G18KT P6SM BKN060
FM161900 26010G18KT P6SM VCTS BKN050CB
FM162200 26010KT 4SM TSRA OVC050CB
FM170100 VRB04KT P6SM VCSH BKN050
FM170800 VRB04KT 6SM BR OVC030

Example: see airport list